Time,TemperatureF,DewpointF,PressureIn,WindDirection,WindDirectionDegrees,WindSpeedMPH,WindSpeedGustMPH,Humidity,HourlyPrecipIn,Conditions,Clouds,dailyrainin,SolarRadiationWatts/m^2,SoftwareType,DateUTC
2013-11-12 00:03:00,69.0,67.0,-100.00,NE,37,0.0,1.0,92,0.00,,,0.00,0.000000,,2013-11-12 05:03:00,
2013-11-12 00:11:00,67.0,66.0,-100.00,NNE,22,0.0,1.0,95,0.00,,,0.00,0.000000,,2013-11-12 05:11:00,
2013-11-12 00:44:00,67.0,66.0,-100.00,NNE,22,0.0,1.0,95,0.00,,,0.00,0.000000,,2013-11-12 05:44:00,
2013-11-12 00:54:00,67.0,66.0,-100.00,NNE,22,0.0,1.0,95,0.00,,,0.00,0.000000,,2013-11-12 05:54:00,
2013-11-12 01:03:00,67.0,66.0,-100.00,NNE,22,0.0,1.0,95,0.00,,,0.00,0.000000,,2013-11-12 06:03:00,
2013-11-12 01:11:00,66.0,65.0,-100.00,NW,320,0.0,0.0,95,0.00,,,0.00,0.000000,,2013-11-12 06:11:00,
2013-11-12 01:42:00,66.0,65.0,-100.00,NW,320,0.0,0.0,95,0.00,,,0.00,0.000000,,2013-11-12 06:42:00,
2013-11-12 01:52:00,66.0,65.0,-100.00,NW,320,0.0,0.0,95,0.00,,,0.00,0.000000,,2013-11-12 06:52:00,
2013-11-12 02:02:00,66.0,65.0,-100.00,NW,320,0.0,0.0,95,0.00,,,0.00,0.000000,,2013-11-12 07:02:00,
2013-11-12 02:11:00,65.0,64.0,-100.00,NW,319,0.0,0.0,96,0.00,,,0.00,0.000000,,2013-11-12 07:11:00,
2013-11-12 02:42:00,65.0,64.0,-100.00,NW,319,0.0,0.0,96,0.00,,,0.00,0.000000,,2013-11-12 07:42:00,
2013-11-12 02:52:00,65.0,64.0,-100.00,NW,319,0.0,0.0,96,0.00,,,0.00,0.000000,,2013-11-12 07:52:00,
2013-11-12 03:02:00,65.0,64.0,-100.00,NW,319,0.0,0.0,96,0.00,,,0.00,0.000000,,2013-11-12 08:02:00,
2013-11-12 03:11:00,65.0,64.0,-100.00,NNE,16,0.0,0.0,96,0.00,,,0.00,0.000000,,2013-11-12 08:11:00,
2013-11-12 03:42:00,65.0,64.0,-100.00,NNE,16,0.0,0.0,96,0.00,,,0.00,0.000000,,2013-11-12 08:42:00,
2013-11-12 03:52:00,65.0,64.0,-100.00,NNE,16,0.0,0.0,96,0.00,,,0.00,0.000000,,2013-11-12 08:52:00,
2013-11-12 04:02:00,65.0,64.0,-100.00,NNE,16,0.0,0.0,96,0.00,,,0.00,0.000000,,2013-11-12 09:02:00,
2013-11-12 04:11:00,64.0,63.0,-100.00,NNE,16,0.0,0.0,96,0.00,,,0.00,0.000000,,2013-11-12 09:11:00,
2013-11-12 04:42:00,64.0,63.0,-100.00,NNE,16,0.0,0.0,96,0.00,,,0.00,0.000000,,2013-11-12 09:42:00,
2013-11-12 04:54:00,64.0,63.0,-100.00,NNE,16,0.0,0.0,96,0.00,,,0.00,0.000000,,2013-11-12 09:54:00,
2013-11-12 05:03:00,64.0,63.0,-100.00,NNE,16,0.0,0.0,96,0.00,,,0.00,0.000000,,2013-11-12 10:03:00,
2013-11-12 05:11:00,64.0,63.0,-100.00,NNE,26,0.0,2.0,97,0.00,,,0.00,0.000000,,2013-11-12 10:11:00,
2013-11-12 05:42:00,64.0,63.0,-100.00,NNE,26,0.0,2.0,97,0.00,,,0.00,0.000000,,2013-11-12 10:42:00,
2013-11-12 05:53:00,64.0,63.0,-100.00,NNE,26,0.0,2.0,97,0.00,,,0.00,0.000000,,2013-11-12 10:53:00,
2013-11-12 06:02:00,64.0,63.0,-100.00,NNE,26,0.0,2.0,97,0.00,,,0.00,0.000000,,2013-11-12 11:02:00,
2013-11-12 07:11:00,64.0,63.0,-100.00,NW,305,0.0,2.0,97,-99.99,,,0.00,7.000000,,2013-11-12 12:11:00,
2013-11-12 07:42:00,64.0,63.0,-100.00,NW,305,0.0,2.0,97,-99.99,,,0.00,7.000000,,2013-11-12 12:42:00,
2013-11-12 07:52:00,64.0,63.0,-100.00,NW,305,0.0,2.0,97,-99.99,,,0.00,7.000000,,2013-11-12 12:52:00,
2013-11-12 08:02:00,64.0,63.0,-100.00,NW,305,0.0,2.0,97,-99.99,,,0.00,7.000000,,2013-11-12 13:02:00,
2013-11-12 08:11:00,69.0,68.0,-100.00,NNE,25,2.0,4.0,97,0.00,,,0.00,45.000000,,2013-11-12 13:11:00,
2013-11-12 08:42:00,69.0,68.0,-100.00,NNE,25,2.0,4.0,97,0.00,,,0.00,45.000000,,2013-11-12 13:42:00,
2013-11-12 08:52:00,69.0,68.0,-100.00,NNE,25,2.0,4.0,97,0.00,,,0.00,45.000000,,2013-11-12 13:52:00,
2013-11-12 09:02:00,69.0,68.0,-100.00,NNE,25,2.0,4.0,97,0.00,,,0.00,45.000000,,2013-11-12 14:02:00,
2013-11-12 09:11:00,77.0,68.0,-100.00,NNE,22,3.0,7.0,75,0.00,,,0.00,270.000000,,2013-11-12 14:11:00,
2013-11-12 09:42:00,77.0,68.0,-100.00,NNE,22,3.0,7.0,75,0.00,,,0.00,270.000000,,2013-11-12 14:42:00,
2013-11-12 09:53:00,77.0,68.0,-100.00,NNE,22,3.0,7.0,75,0.00,,,0.00,270.000000,,2013-11-12 14:53:00,
2013-11-12 10:02:00,77.0,68.0,-100.00,NNE,22,3.0,7.0,75,0.00,,,0.00,270.000000,,2013-11-12 15:02:00,
2013-11-12 10:11:00,82.0,68.0,-100.00,NE,44,4.0,9.0,63,0.00,,,0.00,454.000000,,2013-11-12 15:11:00,
2013-11-12 10:44:00,82.0,68.0,-100.00,NE,44,4.0,9.0,63,0.00,,,0.00,454.000000,,2013-11-12 15:44:00,
2013-11-12 10:53:00,82.0,68.0,-100.00,NE,44,4.0,9.0,63,0.00,,,0.00,454.000000,,2013-11-12 15:53:00,
2013-11-12 11:04:00,82.0,68.0,-100.00,NE,44,4.0,9.0,63,0.00,,,0.00,454.000000,,2013-11-12 16:04:00,
2013-11-12 11:11:00,82.0,67.0,-100.00,ENE,66,4.0,7.0,61,0.00,,,0.00,365.000000,,2013-11-12 16:11:00,
2013-11-12 11:42:00,82.0,67.0,-100.00,ENE,66,4.0,7.0,61,0.00,,,0.00,365.000000,,2013-11-12 16:42:00,
2013-11-12 11:53:00,82.0,67.0,-100.00,ENE,66,4.0,7.0,61,0.00,,,0.00,365.000000,,2013-11-12 16:53:00,
2013-11-12 12:02:00,82.0,67.0,-100.00,ENE,66,4.0,7.0,61,0.00,,,0.00,365.000000,,2013-11-12 17:02:00,
2013-11-12 12:11:00,82.0,68.0,-100.00,NE,55,3.0,7.0,62,0.00,,,0.00,311.000000,,2013-11-12 17:11:00,
2013-11-12 12:43:00,82.0,68.0,-100.00,NE,55,3.0,7.0,62,0.00,,,0.00,311.000000,,2013-11-12 17:43:00,
2013-11-12 12:52:00,82.0,68.0,-100.00,NE,55,3.0,7.0,62,0.00,,,0.00,311.000000,,2013-11-12 17:52:00,
2013-11-12 13:02:00,82.0,68.0,-100.00,NE,55,3.0,7.0,62,0.00,,,0.00,311.000000,,2013-11-12 18:02:00,
2013-11-12 13:11:00,84.0,65.0,-100.00,ENE,61,3.0,7.0,53,0.00,,,0.00,491.000000,,2013-11-12 18:11:00,
2013-11-12 13:42:00,84.0,65.0,-100.00,ENE,61,3.0,7.0,53,0.00,,,0.00,491.000000,,2013-11-12 18:42:00,
2013-11-12 13:52:00,84.0,65.0,-100.00,ENE,61,3.0,7.0,53,0.00,,,0.00,491.000000,,2013-11-12 18:52:00,
2013-11-12 14:01:00,84.0,65.0,-100.00,ENE,61,3.0,7.0,53,0.00,,,0.00,491.000000,,2013-11-12 19:01:00,
2013-11-12 14:11:00,84.0,64.0,-100.00,NE,42,4.0,9.0,52,0.00,,,0.00,492.000000,,2013-11-12 19:11:00,
2013-11-12 14:42:00,84.0,64.0,-100.00,NE,42,4.0,9.0,52,0.00,,,0.00,492.000000,,2013-11-12 19:42:00,
2013-11-12 14:52:00,84.0,64.0,-100.00,NE,42,4.0,9.0,52,0.00,,,0.00,492.000000,,2013-11-12 19:52:00,
2013-11-12 15:02:00,84.0,64.0,-100.00,NE,42,4.0,9.0,52,0.00,,,0.00,492.000000,,2013-11-12 20:02:00,
2013-11-12 15:11:00,84.0,64.0,-100.00,North,351,3.0,7.0,51,0.00,,,0.00,284.000000,,2013-11-12 20:11:00,
2013-11-12 15:42:00,84.0,64.0,-100.00,North,351,3.0,7.0,51,0.00,,,0.00,284.000000,,2013-11-12 20:42:00,
2013-11-12 15:52:00,84.0,64.0,-100.00,North,351,3.0,7.0,51,0.00,,,0.00,284.000000,,2013-11-12 20:52:00,
2013-11-12 16:02:00,84.0,64.0,-100.00,North,351,3.0,7.0,51,0.00,,,0.00,284.000000,,2013-11-12 21:02:00,
2013-11-12 16:11:00,81.0,64.0,-100.00,NE,40,2.0,6.0,57,0.00,,,0.00,173.000000,,2013-11-12 21:11:00,
2013-11-12 16:44:00,81.0,64.0,-100.00,NE,40,2.0,6.0,57,0.00,,,0.00,173.000000,,2013-11-12 21:44:00,
2013-11-12 16:54:00,81.0,64.0,-100.00,NE,40,2.0,6.0,57,0.00,,,0.00,173.000000,,2013-11-12 21:54:00,
2013-11-12 17:04:00,81.0,64.0,-100.00,NE,40,2.0,6.0,57,0.00,,,0.00,173.000000,,2013-11-12 22:04:00,
2013-11-12 17:11:00,78.0,70.0,-100.00,NW,318,0.0,4.0,77,0.00,,,0.00,42.000000,,2013-11-12 22:11:00,
2013-11-12 17:44:00,78.0,70.0,-100.00,NW,318,0.0,4.0,77,0.00,,,0.00,42.000000,,2013-11-12 22:44:00,
2013-11-12 17:54:00,78.0,70.0,-100.00,NW,318,0.0,4.0,77,0.00,,,0.00,42.000000,,2013-11-12 22:54:00,
2013-11-12 18:03:00,78.0,70.0,-100.00,NW,318,0.0,4.0,77,0.00,,,0.00,42.000000,,2013-11-12 23:03:00,
2013-11-12 18:11:00,75.0,68.0,-100.00,NW,320,1.0,2.0,78,0.00,,,0.00,3.000000,,2013-11-12 23:11:00,
2013-11-12 18:42:00,75.0,68.0,-100.00,NW,320,1.0,2.0,78,0.00,,,0.00,3.000000,,2013-11-12 23:42:00,
2013-11-12 18:54:00,75.0,68.0,-100.00,NW,320,1.0,2.0,78,0.00,,,0.00,3.000000,,2013-11-12 23:54:00,
2013-11-12 19:02:00,75.0,68.0,-100.00,NW,320,1.0,2.0,78,0.00,,,0.00,3.000000,,2013-11-13 00:02:00,
2013-11-12 19:11:00,72.0,68.0,-100.00,NNE,18,0.0,3.0,88,0.00,,,0.00,0.000000,,2013-11-13 00:11:00,
2013-11-12 19:42:00,72.0,68.0,-100.00,NNE,18,0.0,3.0,88,0.00,,,0.00,0.000000,,2013-11-13 00:42:00,
2013-11-12 19:52:00,72.0,68.0,-100.00,NNE,18,0.0,3.0,88,0.00,,,0.00,0.000000,,2013-11-13 00:52:00,
2013-11-12 20:02:00,72.0,68.0,-100.00,NNE,18,0.0,3.0,88,0.00,,,0.00,0.000000,,2013-11-13 01:02:00,
2013-11-12 20:11:00,71.0,68.0,-100.00,NNW,332,0.0,2.0,90,0.00,,,0.00,0.000000,,2013-11-13 01:11:00,
2013-11-12 20:42:00,71.0,68.0,-100.00,NNW,332,0.0,2.0,90,0.00,,,0.00,0.000000,,2013-11-13 01:42:00,
2013-11-12 20:52:00,71.0,68.0,-100.00,NNW,332,0.0,2.0,90,0.00,,,0.00,0.000000,,2013-11-13 01:52:00,
2013-11-12 21:02:00,71.0,68.0,-100.00,NNW,332,0.0,2.0,90,0.00,,,0.00,0.000000,,2013-11-13 02:02:00,
2013-11-12 21:11:00,72.0,66.0,-100.00,NNW,341,2.0,5.0,81,0.00,,,0.00,0.000000,,2013-11-13 02:11:00,
2013-11-12 21:42:00,72.0,66.0,-100.00,NNW,341,2.0,5.0,81,0.00,,,0.00,0.000000,,2013-11-13 02:42:00,
2013-11-12 21:52:00,72.0,66.0,-100.00,NNW,341,2.0,5.0,81,0.00,,,0.00,0.000000,,2013-11-13 02:52:00,
2013-11-12 22:02:00,72.0,66.0,-100.00,NNW,341,2.0,5.0,81,0.00,,,0.00,0.000000,,2013-11-13 03:02:00,
2013-11-12 22:11:00,71.0,66.0,-100.00,NNW,342,1.0,5.0,83,0.00,,,0.00,0.000000,,2013-11-13 03:11:00,
2013-11-12 22:45:00,71.0,66.0,-100.00,NNW,342,1.0,5.0,83,0.00,,,0.00,0.000000,,2013-11-13 03:45:00,
2013-11-12 22:54:00,71.0,66.0,-100.00,NNW,342,1.0,5.0,83,0.00,,,0.00,0.000000,,2013-11-13 03:54:00,
2013-11-12 23:04:00,71.0,66.0,-100.00,NNW,342,1.0,5.0,83,0.00,,,0.00,0.000000,,2013-11-13 04:04:00,
2013-11-12 23:11:00,70.0,66.0,-100.00,NW,325,2.0,4.0,87,0.00,,,0.00,0.000000,,2013-11-13 04:11:00,
2013-11-12 23:43:00,70.0,66.0,-100.00,NW,325,2.0,4.0,87,0.00,,,0.00,0.000000,,2013-11-13 04:43:00,
2013-11-12 23:53:00,70.0,66.0,-100.00,NW,325,2.0,4.0,87,0.00,,,0.00,0.000000,,2013-11-13 04:53:00,